sensor_id;sensor_type;location;lat;lon;timestamp;pressure;altitude;pressure_sealevel;temperature;humidity
15604;BME280;7902;49.042;9.092;2023-04-30T00:00:56;99403.19;;;16.95;56.28
15604;BME280;7902;49.042;9.092;2023-04-30T00:03:22;99401.19;;;16.97;56.63
15604;BME280;7902;49.042;9.092;2023-04-30T00:05:49;99392.72;;;16.93;56.22
15604;BME280;7902;49.042;9.092;2023-04-30T00:08:16;99400.25;;;16.88;56.88
15604;BME280;7902;49.042;9.092;2023-04-30T00:10:42;99394.25;;;16.86;56.66
15604;BME280;7902;49.042;9.092;2023-04-30T00:13:08;99398.03;;;16.84;56.32
15604;BME280;7902;49.042;9.092;2023-04-30T00:15:35;99404.19;;;16.84;56.26
15604;BME280;7902;49.042;9.092;2023-04-30T00:18:01;99408.94;;;16.81;56.67
15604;BME280;7902;49.042;9.092;2023-04-30T00:20:27;99407.94;;;16.82;56.70
15604;BME280;7902;49.042;9.092;2023-04-30T00:22:53;99404.75;;;16.78;56.34
15604;BME280;7902;49.042;9.092;2023-04-30T00:25:20;99409.06;;;16.79;56.87
15604;BME280;7902;49.042;9.092;2023-04-30T00:27:49;99415.66;;;16.75;56.44
15604;BME280;7902;49.042;9.092;2023-04-30T00:30:15;99411.31;;;16.74;56.77
15604;BME280;7902;49.042;9.092;2023-04-30T00:32:41;99417.16;;;16.78;56.95
15604;BME280;7902;49.042;9.092;2023-04-30T00:35:07;99417.72;;;16.81;56.64
15604;BME280;7902;49.042;9.092;2023-04-30T00:37:33;99424.44;;;16.76;56.60
15604;BME280;7902;49.042;9.092;2023-04-30T00:39:59;99433.38;;;16.75;56.31
15604;BME280;7902;49.042;9.092;2023-04-30T00:42:25;99430.00;;;16.73;56.55
15604;BME280;7902;49.042;9.092;2023-04-30T00:44:50;99426.81;;;16.69;57.28
15604;BME280;7902;49.042;9.092;2023-04-30T00:47:16;99432.13;;;16.69;57.17
15604;BME280;7902;49.042;9.092;2023-04-30T00:49:43;99437.56;;;16.67;57.24
15604;BME280;7902;49.042;9.092;2023-04-30T00:52:09;99429.47;;;16.69;56.96
15604;BME280;7902;49.042;9.092;2023-04-30T00:54:35;99434.63;;;16.71;57.06
15604;BME280;7902;49.042;9.092;2023-04-30T00:57:01;99427.53;;;16.61;56.90
15604;BME280;7902;49.042;9.092;2023-04-30T00:59:27;99429.88;;;16.64;57.27
15604;BME280;7902;49.042;9.092;2023-04-30T01:01:54;99434.78;;;16.59;57.24
15604;BME280;7902;49.042;9.092;2023-04-30T01:04:21;99429.47;;;16.59;56.89
15604;BME280;7902;49.042;9.092;2023-04-30T01:06:46;99434.78;;;16.59;57.57
15604;BME280;7902;49.042;9.092;2023-04-30T01:09:12;99432.53;;;16.64;56.77
15604;BME280;7902;49.042;9.092;2023-04-30T01:17:05;99431.28;;;16.68;56.67
15604;BME280;7902;49.042;9.092;2023-04-30T01:19:37;99429.59;;;16.67;56.42
15604;BME280;7902;49.042;9.092;2023-04-30T01:22:03;99429.88;;;16.64;57.09
15604;BME280;7902;49.042;9.092;2023-04-30T01:24:46;99426.41;;;16.64;57.07
15604;BME280;7902;49.042;9.092;2023-04-30T01:27:31;99424.72;;;16.63;56.89
15604;BME280;7902;49.042;9.092;2023-04-30T01:30:04;99424.47;;;16.66;56.85
15604;BME280;7902;49.042;9.092;2023-04-30T01:32:30;99422.47;;;16.68;56.62
15604;BME280;7902;49.042;9.092;2023-04-30T01:34:56;99421.81;;;16.66;55.98
15604;BME280;7902;49.042;9.092;2023-04-30T01:37:41;99416.63;;;16.64;56.87
15604;BME280;7902;49.042;9.092;2023-04-30T01:40:25;99415.78;;;16.64;56.75
15604;BME280;7902;49.042;9.092;2023-04-30T01:45:53;99413.28;;;16.62;56.37
15604;BME280;7902;49.042;9.092;2023-04-30T01:48:42;99422.50;;;16.58;56.55
15604;BME280;7902;49.042;9.092;2023-04-30T01:51:18;99426.94;;;16.58;56.76
15604;BME280;7902;49.042;9.092;2023-04-30T01:53:45;99426.25;;;16.56;56.93
15604;BME280;7902;49.042;9.092;2023-04-30T01:56:17;99424.28;;;16.48;56.81
15604;BME280;7902;49.042;9.092;2023-04-30T01:58:47;99424.16;;;16.50;56.75
15604;BME280;7902;49.042;9.092;2023-04-30T02:01:30;99417.03;;;16.50;56.64
15604;BME280;7902;49.042;9.092;2023-04-30T02:03:56;99418.97;;;16.48;57.14
15604;BME280;7902;49.042;9.092;2023-04-30T02:06:23;99415.78;;;16.45;57.33
15604;BME280;7902;49.042;9.092;2023-04-30T02:08:53;99409.78;;;16.52;57.27
15604;BME280;7902;49.042;9.092;2023-04-30T02:11:20;99407.81;;;16.45;56.95
15604;BME280;7902;49.042;9.092;2023-04-30T02:13:46;99413.00;;;16.46;56.56
15604;BME280;7902;49.042;9.092;2023-04-30T02:16:11;99412.59;;;16.41;56.89
15604;BME280;7902;49.042;9.092;2023-04-30T02:18:37;99407.41;;;16.40;57.17
15604;BME280;7902;49.042;9.092;2023-04-30T02:21:03;99408.00;;;16.34;56.93
15604;BME280;7902;49.042;9.092;2023-04-30T02:23:29;99408.53;;;16.37;57.23
15604;BME280;7902;49.042;9.092;2023-04-30T02:28:23;99412.16;;;16.36;57.34
15604;BME280;7902;49.042;9.092;2023-04-30T02:30:49;99409.63;;;16.35;57.03
15604;BME280;7902;49.042;9.092;2023-04-30T02:33:15;99412.16;;;16.36;56.96
15604;BME280;7902;49.042;9.092;2023-04-30T02:35:41;99406.84;;;16.36;57.39
15604;BME280;7902;49.042;9.092;2023-04-30T02:38:07;99415.94;;;16.34;57.65
15604;BME280;7902;49.042;9.092;2023-04-30T02:40:33;99419.56;;;16.33;57.28
15604;BME280;7902;49.042;9.092;2023-04-30T02:42:59;99412.88;;;16.29;56.89
15604;BME280;7902;49.042;9.092;2023-04-30T02:45:26;99406.56;;;16.30;57.16
15604;BME280;7902;49.042;9.092;2023-04-30T02:47:52;99403.78;;;16.31;56.66
15604;BME280;7902;49.042;9.092;2023-04-30T02:50:17;99411.88;;;16.30;56.57
15604;BME280;7902;49.042;9.092;2023-04-30T02:52:45;99414.69;;;16.28;57.65
15604;BME280;7902;49.042;9.092;2023-04-30T02:55:11;99414.69;;;16.28;57.41
15604;BME280;7902;49.042;9.092;2023-04-30T02:57:38;99416.06;;;16.22;57.40
15604;BME280;7902;49.042;9.092;2023-04-30T03:00:05;99418.72;;;16.22;57.47
15604;BME280;7902;49.042;9.092;2023-04-30T03:02:31;99413.00;;;16.17;57.39
15604;BME280;7902;49.042;9.092;2023-04-30T03:04:57;99418.00;;;16.20;56.81
15604;BME280;7902;49.042;9.092;2023-04-30T03:07:23;99407.16;;;16.23;57.23
15604;BME280;7902;49.042;9.092;2023-04-30T03:09:49;99410.22;;;16.19;57.05
15604;BME280;7902;49.042;9.092;2023-04-30T03:12:15;99405.75;;;16.19;57.44
15604;BME280;7902;49.042;9.092;2023-04-30T03:14:41;99400.72;;;16.16;58.27
15604;BME280;7902;49.042;9.092;2023-04-30T03:17:07;99405.75;;;16.19;57.24
15604;BME280;7902;49.042;9.092;2023-04-30T03:19:33;99415.09;;;16.14;57.63
15604;BME280;7902;49.042;9.092;2023-04-30T03:21:59;99410.22;;;16.19;57.60
15604;BME280;7902;49.042;9.092;2023-04-30T03:24:25;99404.34;;;16.15;57.22
15604;BME280;7902;49.042;9.092;2023-04-30T03:26:51;99401.56;;;16.17;57.72
15604;BME280;7902;49.042;9.092;2023-04-30T03:29:17;99401.00;;;16.13;56.91
15604;BME280;7902;49.042;9.092;2023-04-30T03:31:43;99407.56;;;16.09;57.34
15604;BME280;7902;49.042;9.092;2023-04-30T03:34:09;99401.69;;;16.15;57.31
15604;BME280;7902;49.042;9.092;2023-04-30T03:36:34;99402.69;;;16.14;56.66
15604;BME280;7902;49.042;9.092;2023-04-30T03:39:01;99404.34;;;16.15;57.02
15604;BME280;7902;49.042;9.092;2023-04-30T03:41:27;99403.53;;;16.15;57.56
15604;BME280;7902;49.042;9.092;2023-04-30T03:43:52;99401.00;;;16.13;57.69
15604;BME280;7902;49.042;9.092;2023-04-30T03:46:19;99409.09;;;16.12;57.39
15604;BME280;7902;49.042;9.092;2023-04-30T03:48:45;99406.31;;;16.13;57.67
15604;BME280;7902;49.042;9.092;2023-04-30T03:51:11;99399.63;;;16.09;57.78
15604;BME280;7902;49.042;9.092;2023-04-30T03:53:37;99396.38;;;16.06;57.55
15604;BME280;7902;49.042;9.092;2023-04-30T03:56:03;99396.81;;;16.01;57.57
15604;BME280;7902;49.042;9.092;2023-04-30T03:58:29;99397.09;;;15.98;58.01
15604;BME280;7902;49.042;9.092;2023-04-30T04:00:55;99398.34;;;15.94;58.19
15604;BME280;7902;49.042;9.092;2023-04-30T04:03:21;99388.84;;;15.92;57.96
15604;BME280;7902;49.042;9.092;2023-04-30T04:05:47;99396.41;;;15.87;58.47
15604;BME280;7902;49.042;9.092;2023-04-30T04:08:13;99404.06;;;15.90;57.71
15604;BME280;7902;49.042;9.092;2023-04-30T04:10:39;99400.44;;;15.91;57.42
15604;BME280;7902;49.042;9.092;2023-04-30T04:13:05;99399.31;;;15.93;57.65
15604;BME280;7902;49.042;9.092;2023-04-30T04:15:32;99404.06;;;15.90;57.81
15604;BME280;7902;49.042;9.092;2023-04-30T04:17:58;99405.72;;;15.91;58.39
15604;BME280;7902;49.042;9.092;2023-04-30T04:20:24;99409.34;;;15.90;58.47
15604;BME280;7902;49.042;9.092;2023-04-30T04:22:50;99407.38;;;15.82;57.66
15604;BME280;7902;49.042;9.092;2023-04-30T04:25:16;99405.44;;;15.84;58.63
15604;BME280;7902;49.042;9.092;2023-04-30T04:27:43;99411.41;;;15.67;58.72
15604;BME280;7902;49.042;9.092;2023-04-30T04:30:09;99414.19;;;15.75;58.05
15604;BME280;7902;49.042;9.092;2023-04-30T04:32:35;99425.91;;;15.92;57.99
15604;BME280;7902;49.042;9.092;2023-04-30T04:35:15;99425.25;;;15.90;57.76
15604;BME280;7902;49.042;9.092;2023-04-30T04:37:41;99419.50;;;15.85;57.47
15604;BME280;7902;49.042;9.092;2023-04-30T04:40:07;99422.72;;;15.88;57.88
15604;BME280;7902;49.042;9.092;2023-04-30T04:42:33;99427.75;;;15.91;57.44
15604;BME280;7902;49.042;9.092;2023-04-30T04:44:59;99425.38;;;15.88;58.23
15604;BME280;7902;49.042;9.092;2023-04-30T04:47:25;99427.75;;;15.91;58.63
15604;BME280;7902;49.042;9.092;2023-04-30T04:49:52;99427.59;;;15.93;57.80
15604;BME280;7902;49.042;9.092;2023-04-30T04:52:17;99428.31;;;15.95;58.32
15604;BME280;7902;49.042;9.092;2023-04-30T04:54:43;99429.84;;;15.97;58.01
15604;BME280;7902;49.042;9.092;2023-04-30T04:57:09;99436.09;;;15.96;57.94
15604;BME280;7902;49.042;9.092;2023-04-30T04:59:35;99431.94;;;15.94;57.70
15604;BME280;7902;49.042;9.092;2023-04-30T05:02:01;99431.53;;;15.98;57.97
15604;BME280;7902;49.042;9.092;2023-04-30T05:04:27;99435.84;;;15.99;57.25
15604;BME280;7902;49.042;9.092;2023-04-30T05:06:54;99429.72;;;15.99;57.54
15604;BME280;7902;49.042;9.092;2023-04-30T05:09:20;99428.59;;;16.01;57.37
15604;BME280;7902;49.042;9.092;2023-04-30T05:11:46;99428.16;;;15.96;58.19
15604;BME280;7902;49.042;9.092;2023-04-30T05:14:13;99426.38;;;16.06;58.07
15604;BME280;7902;49.042;9.092;2023-04-30T05:16:39;99431.94;;;16.03;57.80
15604;BME280;7902;49.042;9.092;2023-04-30T05:19:05;99430.69;;;16.07;57.36
15604;BME280;7902;49.042;9.092;2023-04-30T05:21:34;99431.09;;;16.03;57.70
15604;BME280;7902;49.042;9.092;2023-04-30T05:24:01;99431.66;;;15.97;57.92
15604;BME280;7902;49.042;9.092;2023-04-30T05:26:26;99436.97;;;16.06;57.80
15604;BME280;7902;49.042;9.092;2023-04-30T05:28:52;99431.09;;;16.03;57.64
15604;BME280;7902;49.042;9.092;2023-04-30T05:31:18;99433.63;;;16.04;58.09
15604;BME280;7902;49.042;9.092;2023-04-30T05:33:44;99425.41;;;16.07;57.63
15604;BME280;7902;49.042;9.092;2023-04-30T05:36:10;99436.41;;;16.12;57.71
15604;BME280;7902;49.042;9.092;2023-04-30T05:38:36;99434.47;;;16.14;57.91
15604;BME280;7902;49.042;9.092;2023-04-30T05:41:02;99434.19;;;16.17;57.88
15604;BME280;7902;49.042;9.092;2023-04-30T05:43:28;99434.06;;;16.29;56.97
15604;BME280;7902;49.042;9.092;2023-04-30T05:45:54;99427.50;;;16.33;57.59
15604;BME280;7902;49.042;9.092;2023-04-30T05:48:20;99436.44;;;16.32;56.48
15604;BME280;7902;49.042;9.092;2023-04-30T05:50:46;99443.97;;;16.27;57.43
15604;BME280;7902;49.042;9.092;2023-04-30T05:53:12;99437.94;;;16.24;56.93
15604;BME280;7902;49.042;9.092;2023-04-30T05:55:38;99439.38;;;16.38;56.83
15604;BME280;7902;49.042;9.092;2023-04-30T05:58:04;99435.03;;;16.37;57.04
15604;BME280;7902;49.042;9.092;2023-04-30T06:00:31;99434.06;;;16.38;57.00
15604;BME280;7902;49.042;9.092;2023-04-30T06:02:56;99432.66;;;16.34;57.38
15604;BME280;7902;49.042;9.092;2023-04-30T06:05:22;99424.44;;;16.37;56.95
15604;BME280;7902;49.042;9.092;2023-04-30T06:07:48;99428.91;;;16.37;56.77
15604;BME280;7902;49.042;9.092;2023-04-30T06:10:14;99427.66;;;16.41;57.01
15604;BME280;7902;49.042;9.092;2023-04-30T06:12:40;99426.25;;;16.46;56.89
15604;BME280;7902;49.042;9.092;2023-04-30T06:15:06;99427.50;;;16.52;56.68
15604;BME280;7902;49.042;9.092;2023-04-30T06:17:32;99423.59;;;16.56;56.64
15604;BME280;7902;49.042;9.092;2023-04-30T06:19:58;99418.75;;;16.61;56.21
15604;BME280;7902;49.042;9.092;2023-04-30T06:22:28;99428.63;;;16.59;56.58
15604;BME280;7902;49.042;9.092;2023-04-30T06:24:54;99431.56;;;16.65;56.22
15604;BME280;7902;49.042;9.092;2023-04-30T06:27:22;99429.03;;;16.54;56.91
15604;BME280;7902;49.042;9.092;2023-04-30T06:29:48;99425.84;;;16.60;56.63
15604;BME280;7902;49.042;9.092;2023-04-30T06:32:14;99423.06;;;16.62;56.30
15604;BME280;7902;49.042;9.092;2023-04-30T06:34:40;99425.72;;;16.62;56.55
15604;BME280;7902;49.042;9.092;2023-04-30T06:37:06;99432.38;;;16.56;56.92
15604;BME280;7902;49.042;9.092;2023-04-30T06:39:32;99431.16;;;16.60;56.49
15604;BME280;7902;49.042;9.092;2023-04-30T06:41:57;99430.72;;;16.65;56.70
15604;BME280;7902;49.042;9.092;2023-04-30T06:44:23;99437.00;;;16.64;56.13
15604;BME280;7902;49.042;9.092;2023-04-30T06:46:49;99431.69;;;16.64;56.55
15604;BME280;7902;49.042;9.092;2023-04-30T06:49:15;99435.31;;;16.63;56.68
15604;BME280;7902;49.042;9.092;2023-04-30T06:51:41;99434.91;;;16.67;57.02
15604;BME280;7902;49.042;9.092;2023-04-30T06:54:07;99435.91;;;16.66;56.86
15604;BME280;7902;49.042;9.092;2023-04-30T06:56:33;99436.16;;;16.63;57.00
15604;BME280;7902;49.042;9.092;2023-04-30T06:58:59;99435.06;;;16.66;57.07
15604;BME280;7902;49.042;9.092;2023-04-30T07:01:25;99427.34;;;16.73;56.75
15604;BME280;7902;49.042;9.092;2023-04-30T07:03:51;99428.19;;;16.73;56.93
15604;BME280;7902;49.042;9.092;2023-04-30T07:06:19;99424.28;;;16.77;56.87
15604;BME280;7902;49.042;9.092;2023-04-30T07:08:45;99430.59;;;16.76;57.04
15604;BME280;7902;49.042;9.092;2023-04-30T07:11:11;99429.72;;;16.85;56.80
15604;BME280;7902;49.042;9.092;2023-04-30T07:13:38;99427.94;;;16.76;56.72
15604;BME280;7902;49.042;9.092;2023-04-30T07:16:04;99423.00;;;16.81;56.57
15604;BME280;7902;49.042;9.092;2023-04-30T07:18:30;99426.06;;;16.86;56.56
15604;BME280;7902;49.042;9.092;2023-04-30T07:20:56;99419.13;;;16.85;56.42
15604;BME280;7902;49.042;9.092;2023-04-30T07:23:22;99421.19;;;16.91;55.89
15604;BME280;7902;49.042;9.092;2023-04-30T07:25:48;99417.13;;;16.97;55.92
15604;BME280;7902;49.042;9.092;2023-04-30T07:28:14;99414.59;;;16.95;56.51
15604;BME280;7902;49.042;9.092;2023-04-30T07:30:40;99418.41;;;16.93;56.47
15604;BME280;7902;49.042;9.092;2023-04-30T07:33:06;99422.28;;;16.98;56.27
15604;BME280;7902;49.042;9.092;2023-04-30T07:35:33;99412.97;;;16.94;56.01
15604;BME280;7902;49.042;9.092;2023-04-30T07:37:59;99421.31;;;16.99;55.98
15604;BME280;7902;49.042;9.092;2023-04-30T07:40:25;99420.47;;;16.99;56.12
15604;BME280;7902;49.042;9.092;2023-04-30T07:42:51;99417.66;;;17.00;55.97
15604;BME280;7902;49.042;9.092;2023-04-30T07:45:17;99417.09;;;17.06;56.18
15604;BME280;7902;49.042;9.092;2023-04-30T07:47:43;99418.50;;;17.01;56.40
15604;BME280;7902;49.042;9.092;2023-04-30T07:50:09;99421.59;;;16.96;56.03
15604;BME280;7902;49.042;9.092;2023-04-30T07:52:35;99415.16;;;16.99;56.31
15604;BME280;7902;49.042;9.092;2023-04-30T07:55:01;99427.72;;;17.06;56.11
15604;BME280;7902;49.042;9.092;2023-04-30T07:57:27;99416.16;;;16.98;56.43
15604;BME280;7902;49.042;9.092;2023-04-30T07:59:54;99412.09;;;17.03;56.25
15604;BME280;7902;49.042;9.092;2023-04-30T08:02:20;99410.09;;;17.05;56.00
15604;BME280;7902;49.042;9.092;2023-04-30T08:04:46;99407.31;;;17.07;56.12
15604;BME280;7902;49.042;9.092;2023-04-30T08:07:12;99404.53;;;17.08;56.56
15604;BME280;7902;49.042;9.092;2023-04-30T08:09:40;99419.88;;;17.05;56.19
15604;BME280;7902;49.042;9.092;2023-04-30T08:12:08;99421.44;;;17.07;56.16
15604;BME280;7902;49.042;9.092;2023-04-30T08:14:34;99412.91;;;17.14;55.88
15604;BME280;7902;49.042;9.092;2023-04-30T08:17:00;99421.22;;;17.19;55.99
15604;BME280;7902;49.042;9.092;2023-04-30T08:19:27;99411.31;;;17.21;55.80
15604;BME280;7902;49.042;9.092;2023-04-30T08:21:53;99411.50;;;17.09;56.09
15604;BME280;7902;49.042;9.092;2023-04-30T08:24:19;99413.44;;;17.17;55.93
15604;BME280;7902;49.042;9.092;2023-04-30T08:26:45;99400.00;;;17.19;56.08
15604;BME280;7902;49.042;9.092;2023-04-30T08:29:11;99410.56;;;17.28;55.64
15604;BME280;7902;49.042;9.092;2023-04-30T08:31:37;99408.97;;;17.18;56.20
15604;BME280;7902;49.042;9.092;2023-04-30T08:34:03;99417.78;;;17.18;55.83
15604;BME280;7902;49.042;9.092;2023-04-30T08:36:28;99413.97;;;17.21;55.85
15604;BME280;7902;49.042;9.092;2023-04-30T08:38:54;99413.41;;;17.27;55.48
15604;BME280;7902;49.042;9.092;2023-04-30T08:41:25;99417.34;;;17.23;55.43
15604;BME280;7902;49.042;9.092;2023-04-30T08:43:54;99412.25;;;17.29;55.87
15604;BME280;7902;49.042;9.092;2023-04-30T08:46:24;99410.84;;;17.35;55.59
15604;BME280;7902;49.042;9.092;2023-04-30T08:48:50;99411.69;;;17.35;55.72
15604;BME280;7902;49.042;9.092;2023-04-30T08:51:16;99418.16;;;17.23;55.87
15604;BME280;7902;49.042;9.092;2023-04-30T08:53:43;99418.31;;;17.22;56.02
15604;BME280;7902;49.042;9.092;2023-04-30T08:56:10;99416.28;;;17.33;55.03
15604;BME280;7902;49.042;9.092;2023-04-30T08:58:36;99422.03;;;17.29;55.50
15604;BME280;7902;49.042;9.092;2023-04-30T09:01:04;99419.78;;;17.34;55.69
15604;BME280;7902;49.042;9.092;2023-04-30T09:03:32;99419.84;;;17.51;55.42
15604;BME280;7902;49.042;9.092;2023-04-30T09:05:58;99420.56;;;17.44;54.90
15604;BME280;7902;49.042;9.092;2023-04-30T09:11:25;99416.09;;;17.44;55.49
15604;BME280;7902;49.042;9.092;2023-04-30T09:13:54;99416.28;;;17.33;56.01
15604;BME280;7902;49.042;9.092;2023-04-30T09:16:22;99407.22;;;17.36;55.54
15604;BME280;7902;49.042;9.092;2023-04-30T09:18:49;99412.91;;;17.41;55.57
15604;BME280;7902;49.042;9.092;2023-04-30T09:21:15;99412.19;;;17.48;54.68
15604;BME280;7902;49.042;9.092;2023-04-30T09:23:58;99414.69;;;17.50;55.59
15604;BME280;7902;49.042;9.092;2023-04-30T09:26:42;99419.41;;;17.56;55.21
15604;BME280;7902;49.042;9.092;2023-04-30T09:29:08;99405.75;;;17.51;54.93
15604;BME280;7902;49.042;9.092;2023-04-30T09:31:40;99415.38;;;17.52;55.43
15604;BME280;7902;49.042;9.092;2023-04-30T09:34:07;99412.19;;;17.48;55.36
15604;BME280;7902;49.042;9.092;2023-04-30T09:36:33;99409.38;;;17.60;55.37
15604;BME280;7902;49.042;9.092;2023-04-30T09:39:09;99411.19;;;17.59;54.22
15604;BME280;7902;49.042;9.092;2023-04-30T09:41:42;99407.56;;;17.60;55.52
15604;BME280;7902;49.042;9.092;2023-04-30T09:44:28;99407.97;;;17.55;54.97
15604;BME280;7902;49.042;9.092;2023-04-30T09:46:56;99408.53;;;17.59;54.26
15604;BME280;7902;49.042;9.092;2023-04-30T09:49:22;99407.25;;;17.63;54.05
15604;BME280;7902;49.042;9.092;2023-04-30T09:54:28;99405.97;;;17.58;54.47
15604;BME280;7902;49.042;9.092;2023-04-30T09:56:55;99401.41;;;17.60;53.11
15604;BME280;7902;49.042;9.092;2023-04-30T09:59:33;99411.84;;;17.61;54.89
15604;BME280;7902;49.042;9.092;2023-04-30T10:02:07;99405.69;;;17.70;53.82
15604;BME280;7902;49.042;9.092;2023-04-30T10:04:35;99408.59;;;17.67;53.34
15604;BME280;7902;49.042;9.092;2023-04-30T10:07:05;99407.88;;;17.75;53.62
15604;BME280;7902;49.042;9.092;2023-04-30T10:09:41;99410.28;;;17.68;53.61
15604;BME280;7902;49.042;9.092;2023-04-30T10:12:19;99402.84;;;17.72;53.44
15604;BME280;7902;49.042;9.092;2023-04-30T10:14:51;99402.00;;;17.71;54.85
15604;BME280;7902;49.042;9.092;2023-04-30T10:17:19;99404.53;;;17.73;54.02
15604;BME280;7902;49.042;9.092;2023-04-30T10:19:49;99407.03;;;17.74;53.90
15604;BME280;7902;49.042;9.092;2023-04-30T10:22:17;99405.38;;;17.73;54.55
15604;BME280;7902;49.042;9.092;2023-04-30T10:24:44;99402.66;;;17.83;53.53
15604;BME280;7902;49.042;9.092;2023-04-30T10:27:11;99391.78;;;17.76;54.23
15604;BME280;7902;49.042;9.092;2023-04-30T10:29:37;99388.72;;;17.71;54.46
15604;BME280;7902;49.042;9.092;2023-04-30T10:32:03;99393.66;;;17.66;53.80
15604;BME280;7902;49.042;9.092;2023-04-30T10:37:04;99396.69;;;17.71;52.55
15604;BME280;7902;49.042;9.092;2023-04-30T10:39:33;99395.22;;;17.86;53.21
15604;BME280;7902;49.042;9.092;2023-04-30T10:42:06;99392.16;;;17.81;53.33
15604;BME280;7902;49.042;9.092;2023-04-30T10:44:37;99390.34;;;17.82;53.30
15604;BME280;7902;49.042;9.092;2023-04-30T10:47:04;99393.31;;;17.79;52.58
15604;BME280;7902;49.042;9.092;2023-04-30T10:49:31;99385.88;;;17.82;52.79
15604;BME280;7902;49.042;9.092;2023-04-30T10:52:02;99378.75;;;17.83;51.69
15604;BME280;7902;49.042;9.092;2023-04-30T10:54:30;99375.50;;;17.89;53.07
15604;BME280;7902;49.042;9.092;2023-04-30T10:57:13;99376.03;;;17.92;53.86
15604;BME280;7902;49.042;9.092;2023-04-30T10:59:43;99385.72;;;17.84;53.16
15604;BME280;7902;49.042;9.092;2023-04-30T11:02:12;99377.53;;;17.95;52.48
15604;BME280;7902;49.042;9.092;2023-04-30T11:07:30;99379.91;;;17.98;52.98
15604;BME280;7902;49.042;9.092;2023-04-30T11:09:56;99371.84;;;18.08;51.04
15604;BME280;7902;49.042;9.092;2023-04-30T11:12:25;99369.72;;;17.93;52.89
15604;BME280;7902;49.042;9.092;2023-04-30T11:15:04;99365.31;;;18.02;53.02
15604;BME280;7902;49.042;9.092;2023-04-30T11:17:32;99362.34;;;18.05;51.83
15604;BME280;7902;49.042;9.092;2023-04-30T11:19:59;99369.72;;;18.11;51.45
15604;BME280;7902;49.042;9.092;2023-04-30T11:22:26;99371.16;;;18.06;52.03
15604;BME280;7902;49.042;9.092;2023-04-30T11:27:28;99370.78;;;18.01;52.18
15604;BME280;7902;49.042;9.092;2023-04-30T11:29:55;99370.84;;;18.09;51.53
15604;BME280;7902;49.042;9.092;2023-04-30T11:32:23;99362.88;;;18.09;52.72
15604;BME280;7902;49.042;9.092;2023-04-30T11:34:49;99356.50;;;18.02;51.02
15604;BME280;7902;49.042;9.092;2023-04-30T11:39:56;99358.47;;;17.99;52.08
15604;BME280;7902;49.042;9.092;2023-04-30T11:42:22;99360.22;;;18.09;52.57
15604;BME280;7902;49.042;9.092;2023-04-30T11:44:48;99367.13;;;18.02;51.70
15604;BME280;7902;49.042;9.092;2023-04-30T11:47:14;99357.41;;;18.10;52.28
15604;BME280;7902;49.042;9.092;2023-04-30T11:49:41;99365.84;;;18.06;52.07
15604;BME280;7902;49.042;9.092;2023-04-30T11:52:07;99351.72;;;18.05;52.80
15604;BME280;7902;49.042;9.092;2023-04-30T11:54:37;99359.63;;;18.15;52.20
15604;BME280;7902;49.042;9.092;2023-04-30T11:57:04;99358.19;;;18.03;51.86
15604;BME280;7902;49.042;9.092;2023-04-30T11:59:30;99355.34;;;18.04;52.00
15604;BME280;7902;49.042;9.092;2023-04-30T12:01:57;99357.88;;;18.06;52.71
15604;BME280;7902;49.042;9.092;2023-04-30T12:04:23;99350.81;;;18.14;50.66
15604;BME280;7902;49.042;9.092;2023-04-30T12:06:49;99351.59;;;18.07;50.69
15604;BME280;7902;49.042;9.092;2023-04-30T12:09:15;99350.28;;;18.11;51.27
15604;BME280;7902;49.042;9.092;2023-04-30T12:11:41;99343.66;;;18.15;52.16
15604;BME280;7902;49.042;9.092;2023-04-30T12:14:09;99333.78;;;18.25;50.71
15604;BME280;7902;49.042;9.092;2023-04-30T12:16:44;99332.72;;;18.18;52.46
15604;BME280;7902;49.042;9.092;2023-04-30T12:19:11;99319.06;;;18.30;51.60
15604;BME280;7902;49.042;9.092;2023-04-30T12:21:38;99335.53;;;18.34;51.79
15604;BME280;7902;49.042;9.092;2023-04-30T12:24:05;99336.69;;;18.31;52.46
15604;BME280;7902;49.042;9.092;2023-04-30T12:26:36;99329.78;;;18.21;51.67
15604;BME280;7902;49.042;9.092;2023-04-30T12:29:11;99332.50;;;18.29;52.30
15604;BME280;7902;49.042;9.092;2023-04-30T12:31:37;99337.44;;;18.24;51.50
15604;BME280;7902;49.042;9.092;2023-04-30T12:34:05;99328.75;;;18.39;50.21
15604;BME280;7902;49.042;9.092;2023-04-30T12:36:32;99329.78;;;18.47;51.33
15604;BME280;7902;49.042;9.092;2023-04-30T12:39:04;99325.63;;;18.44;51.70
15604;BME280;7902;49.042;9.092;2023-04-30T12:41:35;99335.53;;;18.34;51.13
15604;BME280;7902;49.042;9.092;2023-04-30T12:46:40;99319.31;;;18.45;50.94
15604;BME280;7902;49.042;9.092;2023-04-30T12:49:07;99321.66;;;18.48;51.18
15604;BME280;7902;49.042;9.092;2023-04-30T12:51:36;99324.09;;;18.41;51.41
15604;BME280;7902;49.042;9.092;2023-04-30T12:54:04;99322.00;;;18.45;50.81
15604;BME280;7902;49.042;9.092;2023-04-30T12:56:30;99317.94;;;18.59;49.70
15604;BME280;7902;49.042;9.092;2023-04-30T12:58:56;99309.88;;;18.51;52.42
15604;BME280;7902;49.042;9.092;2023-04-30T13:01:22;99313.63;;;18.58;51.70
15604;BME280;7902;49.042;9.092;2023-04-30T13:03:50;99309.06;;;18.50;51.75
15604;BME280;7902;49.042;9.092;2023-04-30T13:06:16;99303.75;;;18.50;52.05
15604;BME280;7902;49.042;9.092;2023-04-30T13:08:43;99299.16;;;18.60;51.42
15604;BME280;7902;49.042;9.092;2023-04-30T13:11:09;99298.00;;;18.55;51.40
15604;BME280;7902;49.042;9.092;2023-04-30T13:13:35;99298.44;;;18.50;51.65
15604;BME280;7902;49.042;9.092;2023-04-30T13:16:01;99300.00;;;18.61;50.56
15604;BME280;7902;49.042;9.092;2023-04-30T13:21:53;99281.22;;;18.62;51.11
15604;BME280;7902;49.042;9.092;2023-04-30T13:24:19;99283.94;;;18.70;50.78
15604;BME280;7902;49.042;9.092;2023-04-30T13:26:45;99276.16;;;18.77;50.90
15604;BME280;7902;49.042;9.092;2023-04-30T13:29:12;99276.94;;;18.69;51.36
15604;BME280;7902;49.042;9.092;2023-04-30T13:31:38;99274.69;;;18.82;50.49
15604;BME280;7902;49.042;9.092;2023-04-30T13:34:03;99266.88;;;18.81;50.34
15604;BME280;7902;49.042;9.092;2023-04-30T13:36:29;99266.00;;;18.72;50.40
15604;BME280;7902;49.042;9.092;2023-04-30T13:38:55;99266.59;;;18.92;51.03
15604;BME280;7902;49.042;9.092;2023-04-30T13:41:22;99267.72;;;18.90;50.06
15604;BME280;7902;49.042;9.092;2023-04-30T13:43:48;99259.59;;;18.91;49.47